Time;durP1;ratioP1;P1;durP2;ratioP2;P2;SDS_P1;SDS_P2;PMS_P1;PMS_P2;Temp;Humidity;BMP_temperature;BMP_pressure;BME280_temperature;BME280_humidity;BME280_pressure;Samples;Min_cycle;Max_cycle;Signal;HPM_P1;HPM_P2
2023/11/25 00:01:03;;;;;;;6.70;2.70;;;;;;;7.64;68.10;98707.72;106261;1256;67250;-91
2023/11/25 00:03:34;;;;;;;9.10;2.40;;;;;;;7.57;68.64;98711.40;106662;1260;73146;-91
2023/11/25 00:06:09;;;;;;;4.80;2.30;;;;;;;7.41;69.63;98715.17;106102;1256;61341;-87
2023/11/25 00:08:39;;;;;;;3.90;1.90;;;;;;;7.55;69.31;98717.90;106211;1257;61278;-90
2023/11/25 00:11:11;;;;;;;7.40;2.40;;;;;;;7.54;68.52;98714.13;106139;1256;73349;-91
2023/11/25 00:13:54;;;;;;;7.70;2.10;;;;;;;7.41;69.13;98716.93;106711;1256;68836;-87
2023/11/25 00:16:22;;;;;;;3.70;2.10;;;;;;;7.36;69.46;98723.27;106130;1256;71482;-87
2023/11/25 00:18:49;;;;;;;4.90;1.60;;;;;;;7.32;69.49;98727.41;106085;1256;61351;-87
2023/11/25 00:21:21;;;;;;;8.60;2.30;;;;;;;7.36;69.41;98736.25;106093;1255;61310;-87
2023/11/25 00:23:54;;;;;;;7.50;2.10;;;;;;;7.43;69.14;98741.88;106233;1256;74632;-88
2023/11/25 00:26:26;;;;;;;4.20;2.30;;;;;;;7.49;69.21;98751.73;106328;1256;68417;-90
2023/11/25 00:29:00;;;;;;;6.80;2.40;;;;;;;7.47;70.24;98748.38;106111;1256;72055;-93
2023/11/25 00:31:33;;;;;;;9.00;2.90;;;;;;;7.69;69.59;98748.46;105985;1260;61216;-91
2023/11/25 00:34:04;;;;;;;5.80;2.30;;;;;;;7.79;69.96;98746.58;106054;1260;61361;-91
2023/11/25 00:36:37;;;;;;;6.70;2.40;;;;;;;7.82;70.86;98741.17;106512;1256;73477;-90
2023/11/25 00:39:12;;;;;;;8.10;2.40;;;;;;;7.95;70.96;98737.56;106230;1259;67458;-91
2023/11/25 00:41:41;;;;;;;6.30;2.60;;;;;;;7.95;71.14;98737.98;106075;1256;72672;-93
2023/11/25 00:44:13;;;;;;;4.20;2.20;;;;;;;8.07;71.00;98739.38;106250;1255;61287;-91
2023/11/25 00:46:47;;;;;;;10.50;2.80;;;;;;;8.09;71.12;98746.13;106387;1254;61250;-90
2023/11/25 00:49:18;;;;;;;6.90;2.40;;;;;;;8.07;71.69;98749.48;106053;1257;73868;-90
2023/11/25 00:51:50;;;;;;;4.80;2.40;;;;;;;8.07;73.05;98744.66;106349;1254;68593;-91
2023/11/25 00:54:22;;;;;;;8.20;2.60;;;;;;;8.21;73.14;98742.40;106493;1256;71499;-90
2023/11/25 00:56:54;;;;;;;4.50;2.10;;;;;;;8.10;73.64;98754.00;106310;1255;61247;-91
2023/11/25 00:59:27;;;;;;;4.50;2.10;;;;;;;8.17;73.69;98759.52;106594;1255;61266;-86
2023/11/25 01:01:59;;;;;;;6.10;2.80;;;;;;;7.96;75.53;98769.76;106509;1256;74788;-91
2023/11/25 01:04:32;;;;;;;6.90;2.90;;;;;;;7.98;75.80;98770.27;106370;1255;67267;-88
2023/11/25 13:06:17;;;;;;;14.10;6.50;;;;;;;11.05;51.87;99054.51;106135;1257;72639;-83
2023/11/25 13:08:57;;;;;;;10.80;6.40;;;;;;;11.10;51.98;99056.39;106226;1254;61285;-82
2023/11/25 13:11:31;;;;;;;12.70;6.50;;;;;;;11.03;52.26;99062.41;106180;1256;60029;-80
2023/11/25 13:14:11;;;;;;;9.50;5.60;;;;;;;10.97;52.44;99071.96;106157;1257;74668;-80
2023/11/25 13:16:52;;;;;;;12.90;6.60;;;;;;;10.95;52.75;99079.36;106276;1257;68489;-81
2023/11/25 13:19:26;;;;;;;14.40;6.70;;;;;;;10.97;52.48;99078.38;106013;1258;72659;-81
2023/11/25 13:22:00;;;;;;;14.90;8.30;;;;;;;10.92;52.63;99075.81;105996;1257;61339;-84
2023/11/25 13:24:39;;;;;;;13.90;8.00;;;;;;;10.92;52.65;99078.51;106347;1257;61442;-84
2023/11/25 13:27:13;;;;;;;13.30;6.40;;;;;;;10.98;52.40;99076.86;106101;1257;74683;-84
2023/11/25 13:29:47;;;;;;;14.40;6.90;;;;;;;10.95;52.64;99076.11;105974;1257;67297;-84
2023/11/25 13:32:16;;;;;;;23.30;8.10;;;;;;;10.79;52.91;99079.89;106015;1257;71987;-81
2023/11/25 13:34:58;;;;;;;19.90;9.50;;;;;;;10.75;52.86;99082.92;106003;1256;61239;-83
2023/11/25 13:37:32;;;;;;;36.10;13.70;;;;;;;10.74;53.08;99083.44;106550;1257;61343;-83
2023/11/25 13:40:07;;;;;;;33.70;13.60;;;;;;;10.78;52.89;99083.14;106208;1254;74707;-80
2023/11/25 13:42:41;;;;;;;24.40;10.00;;;;;;;10.72;52.93;99083.00;106412;1256;68429;-83
2023/11/25 13:45:23;;;;;;;30.90;14.20;;;;;;;10.71;52.97;99078.41;106285;1256;72741;-84
2023/11/25 13:48:06;;;;;;;33.70;16.10;;;;;;;10.69;52.88;99078.79;106226;1254;61234;-81
2023/11/25 13:50:46;;;;;;;33.00;15.70;;;;;;;10.57;53.12;99082.79;106152;1257;60077;-81
2023/11/25 13:53:15;;;;;;;27.90;14.00;;;;;;;10.41;53.50;99081.73;106317;1257;74659;-81
2023/11/25 13:55:54;;;;;;;33.10;15.00;;;;;;;10.35;53.73;99079.21;106184;1256;68448;-84
2023/11/25 13:58:34;;;;;;;27.50;13.20;;;;;;;10.31;53.83;99077.66;106343;1260;71481;-82
2023/11/25 14:01:08;;;;;;;24.50;12.90;;;;;;;10.22;54.07;99077.95;106392;1259;61343;-82
2023/11/25 14:03:42;;;;;;;33.00;14.50;;;;;;;10.24;54.28;99078.35;106259;1257;61343;-84
2023/11/25 14:06:24;;;;;;;29.70;14.40;;;;;;;10.21;54.35;99077.39;106266;1259;74628;-84
2023/11/25 14:08:58;;;;;;;33.40;13.10;;;;;;;10.17;54.61;99075.08;106595;1256;67883;-84
2023/11/25 14:11:33;;;;;;;26.40;12.60;;;;;;;10.25;54.18;99073.41;106478;1256;72496;-84
2023/11/25 14:14:07;;;;;;;27.70;13.80;;;;;;;10.23;54.34;99077.29;106190;1257;61221;-82
2023/11/25 14:16:52;;;;;;;31.30;14.70;;;;;;;10.16;54.29;99077.73;106207;1257;61222;-81
2023/11/25 14:19:34;;;;;;;33.30;15.60;;;;;;;10.13;54.54;99082.39;106475;1256;74653;-81
2023/11/25 14:22:15;;;;;;;28.90;14.20;;;;;;;10.12;54.49;99084.65;106242;1256;68412;-81
2023/11/25 14:24:43;;;;;;;24.60;13.70;;;;;;;10.15;54.32;99084.41;106239;1256;71406;-84
2023/11/25 14:27:22;;;;;;;24.90;12.50;;;;;;;10.15;54.52;99081.20;106261;1256;61273;-81
2023/11/25 14:30:03;;;;;;;25.60;13.20;;;;;;;10.11;54.29;99081.23;106275;1256;61320;-81
2023/11/25 14:32:37;;;;;;;26.70;13.40;;;;;;;10.01;54.39;99082.45;106302;1256;75163;-81
2023/11/25 14:35:11;;;;;;;25.60;13.20;;;;;;;9.92;54.83;99084.46;106318;1259;69036;-82
2023/11/25 14:37:54;;;;;;;28.20;15.40;;;;;;;9.91;54.84;99083.61;106148;1256;71178;-82
2023/11/25 14:40:38;;;;;;;28.40;14.10;;;;;;;9.90;54.91;99086.36;106187;1260;61257;-81
2023/11/25 14:43:19;;;;;;;23.40;11.10;;;;;;;9.82;54.97;99082.44;106204;1256;61427;-82
2023/11/25 14:45:47;;;;;;;27.60;12.40;;;;;;;9.77;54.98;99083.56;106167;1257;74737;-81
2023/11/25 14:48:27;;;;;;;36.80;22.60;;;;;;;9.71;55.13;99084.17;106263;1260;68373;-82
2023/11/25 14:51:07;;;;;;;59.40;37.30;;;;;;;9.58;55.50;99089.41;106344;1260;72676;-82
2023/11/25 14:53:41;;;;;;;55.80;33.30;;;;;;;9.48;55.92;99093.94;106243;1257;61275;-81
2023/11/25 14:56:15;;;;;;;24.70;15.10;;;;;;;9.50;56.20;99087.73;106140;1257;61144;-81
2023/11/25 14:58:55;;;;;;;28.40;16.10;;;;;;;9.62;55.82;99089.29;106177;1260;75280;-82
2023/11/25 15:01:35;;;;;;;26.30;16.50;;;;;;;9.62;55.67;99084.41;106392;1258;67579;-82
2023/11/25 15:04:08;;;;;;;23.20;12.40;;;;;;;9.58;55.51;99074.84;106308;1256;71347;-82
2023/11/25 15:06:46;;;;;;;24.80;12.70;;;;;;;9.56;55.57;99068.53;106071;1260;61235;-84
2023/11/25 15:09:26;;;;;;;24.30;11.60;;;;;;;9.48;55.45;99072.39;106108;1257;61302;-84
2023/11/25 15:12:06;;;;;;;39.90;16.70;;;;;;;9.43;55.39;99070.48;106096;1257;74716;-84
2023/11/25 15:14:39;;;;;;;29.10;14.60;;;;;;;9.38;55.63;99067.69;106127;1256;67518;-84
2023/11/25 15:17:13;;;;;;;31.00;14.40;;;;;;;9.33;55.78;99065.08;106207;1254;72660;-85
2023/11/25 15:19:59;;;;;;;25.40;12.20;;;;;;;9.35;55.83;99070.77;106003;1256;61713;-82
2023/11/25 15:22:39;;;;;;;30.10;15.30;;;;;;;9.33;55.74;99074.95;106142;1254;61895;-82
2023/11/25 15:25:20;;;;;;;37.80;17.20;;;;;;;9.30;55.96;99072.73;106451;1257;74718;-84
2023/11/25 15:27:48;;;;;;;31.60;16.80;;;;;;;9.21;56.21;99067.66;106189;1257;68387;-82
2023/11/25 15:30:28;;;;;;;26.10;14.20;;;;;;;9.20;56.25;99066.11;106219;1257;74512;-82
2023/11/25 15:33:11;;;;;;;32.90;16.20;;;;;;;9.13;56.45;99070.84;106073;1254;61333;-82
2023/11/25 15:35:51;;;;;;;32.60;16.40;;;;;;;9.10;56.66;99071.38;106154;1260;61287;-85
2023/11/25 15:38:19;;;;;;;30.20;14.60;;;;;;;9.12;56.60;99066.66;106341;1255;73467;-84
2023/11/25 15:40:59;;;;;;;38.30;18.30;;;;;;;9.08;56.62;99064.95;106173;1255;68345;-81
2023/11/25 15:43:41;;;;;;;65.00;30.00;;;;;;;9.08;56.62;99063.56;106599;1255;72741;-82
2023/11/25 15:46:21;;;;;;;40.60;21.00;;;;;;;8.94;57.11;99060.90;106583;1254;61278;-84
2023/11/25 15:48:49;;;;;;;40.90;20.40;;;;;;;8.76;58.04;99058.20;106221;1255;61234;-82
2023/11/25 15:51:29;;;;;;;37.10;18.80;;;;;;;8.85;57.90;99060.92;106346;1256;73328;-86
2023/11/25 15:54:09;;;;;;;37.60;18.60;;;;;;;8.76;58.04;99058.31;106513;1255;68575;-82
2023/11/25 15:56:42;;;;;;;28.20;15.10;;;;;;;8.68;58.63;99061.02;106631;1259;71345;-87
2023/11/25 15:59:16;;;;;;;25.20;12.50;;;;;;;8.57;59.07;99068.83;106963;1254;61383;-82
2023/11/25 16:01:57;;;;;;;28.70;13.80;;;;;;;8.52;59.42;99076.11;106788;1254;61327;-86
2023/11/25 16:04:37;;;;;;;25.20;13.00;;;;;;;8.43;59.98;99075.34;106840;1255;75242;-83
2023/11/25 16:07:12;;;;;;;25.60;11.30;;;;;;;8.45;60.07;99071.61;109123;1255;69417;-87
2023/11/25 16:09:47;;;;;;;23.00;12.20;;;;;;;8.47;59.94;99073.16;108819;1255;71434;-87
2023/11/25 16:12:26;;;;;;;29.90;14.00;;;;;;;8.45;60.15;99076.90;106121;1255;61137;-86
2023/11/25 16:15:11;;;;;;;27.80;13.40;;;;;;;8.47;60.28;99070.04;106089;1254;61264;-86
2023/11/25 16:17:51;;;;;;;50.70;19.90;;;;;;;8.53;60.17;99070.92;106135;1255;73429;-86
2023/11/25 16:20:25;;;;;;;27.50;13.20;;;;;;;8.49;60.22;99070.33;106100;1259;67495;-86
2023/11/25 16:23:06;;;;;;;27.30;12.30;;;;;;;8.37;60.54;99070.64;106226;1255;71474;-82
2023/11/25 16:25:46;;;;;;;25.10;13.00;;;;;;;8.26;61.14;99073.96;108212;1255;61331;-86
2023/11/25 16:28:21;;;;;;;28.60;14.10;;;;;;;8.37;60.59;99070.89;106265;1259;61231;-82
2023/11/25 16:30:52;;;;;;;37.50;18.00;;;;;;;8.32;60.80;99064.45;106296;1256;76830;-86
2023/11/25 16:33:32;;;;;;;68.50;28.50;;;;;;;8.32;60.95;99063.74;106136;1259;67109;-82
2023/11/25 16:36:00;;;;;;;74.50;31.60;;;;;;;8.38;60.74;99062.66;106195;1256;72846;-86
2023/11/25 16:38:34;;;;;;;46.30;20.90;;;;;;;8.35;61.00;99063.79;106121;1254;61315;-86
2023/11/25 16:41:08;;;;;;;42.50;19.90;;;;;;;8.30;61.27;99062.80;106117;1254;61325;-86
2023/11/25 16:43:42;;;;;;;38.40;20.20;;;;;;;8.25;61.77;99060.69;106179;1259;74991;-82
2023/11/25 16:46:22;;;;;;;34.70;18.40;;;;;;;8.25;62.26;99066.42;106339;1256;69953;-86
2023/11/25 16:48:56;;;;;;;32.20;14.40;;;;;;;8.28;62.55;99060.55;106322;1256;75054;-86
2023/11/25 16:51:40;;;;;;;33.20;14.50;;;;;;;8.29;62.74;99060.59;106215;1257;61337;-86
2023/11/25 16:54:26;;;;;;;26.50;13.30;;;;;;;8.38;62.50;99063.76;106239;1259;62670;-82
2023/11/25 16:57:00;;;;;;;28.10;12.70;;;;;;;8.41;62.49;99061.86;106212;1254;76555;-82
2023/11/25 16:59:34;;;;;;;25.90;11.90;;;;;;;8.38;62.68;99067.02;106255;1254;68379;-82
2023/11/25 17:02:21;;;;;;;29.30;15.00;;;;;;;8.29;63.53;99060.58;103056;1291;600831;-86
2023/11/25 17:04:55;;;;;;;24.60;12.30;;;;;;;8.33;63.94;99067.09;105465;1267;59741;-82
2023/11/25 17:07:36;;;;;;;26.00;10.60;;;;;;;8.41;64.04;99065.57;105465;1272;60400;-86
2023/11/25 17:10:16;;;;;;;22.30;10.90;;;;;;;8.46;64.33;99067.02;105442;1266;71111;-86
2023/11/25 17:12:50;;;;;;;19.80;9.90;;;;;;;8.47;64.67;99071.41;106403;1256;70599;-86
2023/11/25 17:15:30;;;;;;;20.20;10.10;;;;;;;8.45;65.27;99075.90;106133;1254;219358;-86
2023/11/25 17:18:04;;;;;;;22.90;10.70;;;;;;;8.47;65.25;99073.36;106378;1253;61566;-86
2023/11/25 17:20:43;;;;;;;24.30;11.70;;;;;;;8.46;65.67;99074.96;106318;1253;60109;-86
2023/11/25 17:23:23;;;;;;;21.00;10.80;;;;;;;8.56;65.40;99073.14;106502;1257;74790;-86
2023/11/25 17:25:58;;;;;;;21.10;10.50;;;;;;;8.56;65.57;99076.80;106265;1257;68598;-82
2023/11/25 17:28:38;;;;;;;18.40;9.90;;;;;;;8.62;65.40;99071.31;106274;1253;72676;-82
2023/11/25 17:31:18;;;;;;;23.10;10.90;;;;;;;8.57;65.53;99066.11;106411;1256;60213;-82
2023/11/25 17:33:53;;;;;;;22.70;11.40;;;;;;;8.62;65.47;99065.16;106656;1253;61212;-86
2023/11/25 17:36:37;;;;;;;23.20;11.40;;;;;;;8.62;65.24;99062.91;106202;1253;74304;-86
2023/11/25 17:39:16;;;;;;;20.70;10.50;;;;;;;8.65;65.34;99061.34;106251;1256;68316;-82
2023/11/25 17:41:50;;;;;;;25.10;12.20;;;;;;;8.60;65.45;99071.79;106159;1256;72683;-82
2023/11/25 17:44:30;;;;;;;20.50;11.30;;;;;;;8.52;65.93;99076.16;106423;1253;61265;-82
2023/11/25 17:47:06;;;;;;;21.10;11.30;;;;;;;8.59;65.65;99075.98;106299;1254;62002;-82
2023/11/25 17:49:42;;;;;;;23.50;10.80;;;;;;;8.73;64.90;99074.04;106217;1254;76066;-86
2023/11/25 17:52:22;;;;;;;22.30;11.20;;;;;;;8.64;65.12;99079.65;106291;1258;68834;-87
2023/11/25 17:54:56;;;;;;;24.50;11.10;;;;;;;8.59;65.41;99081.60;106306;1253;74886;-87
2023/11/25 17:57:36;;;;;;;27.20;12.20;;;;;;;8.56;65.51;99087.96;106409;1253;60374;-86
2023/11/25 18:00:17;;;;;;;41.10;19.70;;;;;;;8.42;66.64;99088.58;106196;1253;61734;-86
2023/11/25 18:02:50;;;;;;;48.40;22.00;;;;;;;8.43;66.53;99088.34;106190;1254;75408;-86
2023/11/25 18:05:30;;;;;;;35.40;16.70;;;;;;;8.34;67.04;99090.26;106165;1260;67121;-85
2023/11/25 18:08:10;;;;;;;33.80;17.00;;;;;;;8.28;67.47;99087.81;106295;1254;73732;-87
2023/11/25 18:10:44;;;;;;;36.20;17.50;;;;;;;8.25;67.32;99086.55;106291;1254;63182;-82
2023/11/25 18:13:25;;;;;;;34.50;16.40;;;;;;;8.31;66.91;99084.65;106233;1253;62046;-82
2023/11/25 18:15:59;;;;;;;35.80;16.20;;;;;;;8.35;66.73;99086.66;106248;1252;71786;-83
2023/11/25 18:18:45;;;;;;;30.10;15.50;;;;;;;8.36;66.71;99085.67;106297;1253;67120;-82
2023/11/25 18:21:25;;;;;;;35.00;16.00;;;;;;;8.36;66.79;99083.55;106204;1258;71521;-82
2023/11/25 18:23:58;;;;;;;34.70;16.70;;;;;;;8.38;66.60;99081.48;106157;1254;59874;-82
2023/11/25 18:26:38;;;;;;;46.80;21.00;;;;;;;8.36;66.77;99088.34;106198;1259;60225;-82
2023/11/25 18:29:18;;;;;;;41.40;18.90;;;;;;;8.44;66.41;99090.30;106272;1258;75072;-83
2023/11/25 18:31:55;;;;;;;31.60;16.40;;;;;;;8.43;66.31;99083.17;106253;1253;67566;-82
2023/11/25 18:34:36;;;;;;;31.80;14.40;;;;;;;8.35;66.80;99084.16;106254;1258;71225;-82
2023/11/25 18:37:16;;;;;;;29.50;12.90;;;;;;;8.39;66.67;99085.08;106341;1257;59632;-83
2023/11/25 18:39:50;;;;;;;23.50;10.80;;;;;;;8.42;66.50;99084.59;106327;1253;59984;-82
2023/11/25 18:42:31;;;;;;;19.30;10.20;;;;;;;8.46;66.44;99086.88;106163;1254;71792;-83
2023/11/25 18:45:05;;;;;;;26.90;13.80;;;;;;;8.39;67.03;99082.73;106144;1254;70136;-83
2023/11/25 18:47:44;;;;;;;25.40;11.40;;;;;;;8.47;66.84;99076.51;106329;1253;71642;-83
2023/11/25 18:50:27;;;;;;;21.90;10.70;;;;;;;8.52;66.34;99070.71;106194;1253;62864;-83
2023/11/25 18:53:01;;;;;;;32.70;15.80;;;;;;;8.49;66.20;99062.13;106291;1253;61916;-87
2023/11/25 18:55:41;;;;;;;34.10;15.60;;;;;;;8.49;65.92;99058.52;106239;1253;73394;-88
2023/11/25 18:58:21;;;;;;;33.80;16.60;;;;;;;8.55;65.20;99055.10;106487;1253;67600;-87
2023/11/25 19:00:54;;;;;;;32.20;17.10;;;;;;;8.43;65.59;99055.09;106275;1252;71101;-87
2023/11/25 19:03:33;;;;;;;29.30;14.50;;;;;;;8.38;65.77;99053.52;106259;1253;61599;-87
2023/11/25 19:06:13;;;;;;;26.40;14.70;;;;;;;8.33;66.12;99045.54;106416;1253;61417;-86
2023/11/25 19:08:47;;;;;;;36.50;18.30;;;;;;;8.34;66.05;99043.41;106176;1253;75202;-86
2023/11/25 19:11:27;;;;;;;65.70;29.60;;;;;;;8.31;66.32;99043.39;106298;1253;69599;-87
2023/11/25 19:14:01;;;;;;;35.40;18.50;;;;;;;8.30;66.53;99039.34;106219;1259;73628;-86
2023/11/25 19:16:44;;;;;;;28.40;15.30;;;;;;;8.30;66.77;99037.87;106253;1253;59607;-83
2023/11/25 19:19:24;;;;;;;29.00;14.60;;;;;;;8.33;66.39;99034.01;106366;1258;62127;-83
2023/11/25 19:21:58;;;;;;;28.00;13.70;;;;;;;8.36;66.06;99031.50;106253;1253;74208;-83
2023/11/25 19:24:37;;;;;;;39.90;18.40;;;;;;;8.41;65.74;99031.00;106334;1253;67443;-83
2023/11/25 19:27:17;;;;;;;43.00;20.90;;;;;;;8.35;65.48;99031.19;106252;1255;72732;-86
2023/11/25 19:29:51;;;;;;;51.10;24.30;;;;;;;8.28;65.95;99037.30;106574;1254;61998;-86
2023/11/25 19:32:25;;;;;;;43.20;21.90;;;;;;;8.33;65.78;99031.77;106290;1253;63142;-86
2023/11/25 19:34:59;;;;;;;36.90;20.20;;;;;;;8.34;65.55;99032.08;106270;1259;74829;-87
2023/11/25 19:37:33;;;;;;;30.10;16.60;;;;;;;8.34;65.57;99025.45;106331;1253;71008;-87
2023/11/25 19:40:13;;;;;;;27.60;14.00;;;;;;;8.27;65.76;99027.20;106374;1254;72671;-87
2023/11/25 19:42:50;;;;;;;31.10;18.00;;;;;;;8.33;65.83;99034.17;106120;1254;59766;-83
2023/11/25 19:45:30;;;;;;;24.90;13.30;;;;;;;8.28;66.09;99034.42;106429;1257;61131;-86
2023/11/25 19:48:11;;;;;;;22.30;12.60;;;;;;;8.28;66.22;99035.13;108504;1254;73504;-87
2023/11/25 19:50:38;;;;;;;25.80;12.90;;;;;;;8.30;66.09;99038.30;106948;1257;67402;-88
2023/11/25 19:53:19;;;;;;;21.60;11.50;;;;;;;8.26;66.29;99040.77;106528;1259;71156;-86
2023/11/25 19:56:02;;;;;;;;;;;;;;;8.25;66.33;99042.20;106336;1260;63056;-86
2023/11/25 19:58:36;;;;;;;28.20;14.90;;;;;;;8.21;66.38;99043.40;106806;1253;60725;-86
2023/11/25 20:01:19;;;;;;;29.20;15.80;;;;;;;8.08;67.12;99043.93;106420;1258;72144;-86
2023/11/25 20:03:53;;;;;;;28.50;15.30;;;;;;;8.11;66.82;99042.92;106544;1253;68735;-86
2023/11/25 20:06:27;;;;;;;40.30;19.10;;;;;;;8.03;67.16;99041.41;106273;1254;74822;-87
2023/11/25 20:09:08;;;;;;;43.30;20.20;;;;;;;7.94;67.83;99037.91;106451;1257;61746;-88
2023/11/25 20:11:42;;;;;;;45.20;21.80;;;;;;;7.98;67.24;99038.70;106705;1253;61581;-89
2023/11/25 20:14:23;;;;;;;47.30;22.80;;;;;;;8.01;66.91;99036.77;106376;1254;71804;-87
2023/11/25 20:16:57;;;;;;;42.20;20.10;;;;;;;8.00;66.70;99035.52;106171;1253;69293;-88
2023/11/25 20:19:31;;;;;;;41.60;18.40;;;;;;;8.00;66.54;99029.81;106386;1254;73182;-88
2023/11/25 20:22:06;;;;;;;38.30;18.60;;;;;;;8.00;66.33;99031.35;106844;1253;60962;-87
2023/11/25 20:24:40;;;;;;;34.10;15.40;;;;;;;7.95;66.23;99027.06;106888;1253;59612;-90
2023/11/25 20:27:07;;;;;;;33.30;14.80;;;;;;;7.91;66.43;99014.78;106457;1257;73016;-89
2023/11/25 20:29:41;;;;;;;28.00;13.50;;;;;;;7.90;66.56;99010.82;106487;1253;69622;-88
2023/11/25 20:32:19;;;;;;;28.40;14.60;;;;;;;7.86;66.83;99005.45;106589;1254;72650;-86
2023/11/25 20:34:53;;;;;;;31.50;14.00;;;;;;;7.85;67.05;99002.80;106587;1253;59608;-86
2023/11/25 20:37:27;;;;;;;25.10;13.10;;;;;;;7.85;67.52;99000.14;106651;1253;62311;-86
2023/11/25 20:39:55;;;;;;;23.90;11.90;;;;;;;7.76;68.35;99005.13;106468;1257;74052;-86
2023/11/25 20:42:29;;;;;;;20.50;9.90;;;;;;;7.65;69.70;99000.84;106520;1256;69359;-86
2023/11/25 20:44:57;;;;;;;24.20;11.50;;;;;;;7.66;70.37;99002.34;106420;1253;72643;-87
2023/11/25 20:47:31;;;;;;;24.50;11.20;;;;;;;7.75;70.25;99002.41;106544;1253;62099;-86
2023/11/25 20:50:05;;;;;;;24.70;10.40;;;;;;;7.81;70.32;98995.19;106566;1255;59604;-87
2023/11/25 20:52:35;;;;;;;25.30;11.70;;;;;;;7.89;70.00;98993.70;106370;1256;75598;-86
2023/11/25 20:55:10;;;;;;;22.90;10.10;;;;;;;7.95;69.59;98988.27;106493;1256;68593;-86
2023/11/25 20:57:43;;;;;;;18.40;9.90;;;;;;;7.96;69.63;98984.95;106530;1255;71078;-86
2023/11/25 21:00:13;;;;;;;26.50;12.90;;;;;;;7.97;69.79;98982.32;106471;1256;59692;-86
2023/11/25 21:02:47;;;;;;;30.10;15.50;;;;;;;8.00;69.66;98978.47;106755;1253;60036;-86
2023/11/25 21:05:17;;;;;;;24.70;13.10;;;;;;;8.02;69.86;98974.58;106701;1253;71753;-88
2023/11/25 21:07:55;;;;;;;24.20;13.70;;;;;;;8.02;70.05;98971.20;106359;1253;68379;-87
2023/11/25 21:10:34;;;;;;;20.00;11.40;;;;;;;8.09;69.59;98963.19;106621;1253;72658;-87
2023/11/25 21:13:02;;;;;;;26.00;12.30;;;;;;;8.10;69.65;98956.19;106378;1254;59696;-86
2023/11/25 21:15:36;;;;;;;23.40;11.20;;;;;;;8.12;69.55;98959.04;106672;1255;59561;-87
2023/11/25 21:18:10;;;;;;;23.60;11.60;;;;;;;8.17;69.58;98960.81;106661;1253;71762;-87
2023/11/25 21:20:44;;;;;;;20.90;9.70;;;;;;;8.23;69.63;98956.89;106828;1253;68451;-86
2023/11/25 21:23:19;;;;;;;26.40;11.20;;;;;;;8.22;69.61;98952.71;106473;1254;71880;-85
2023/11/25 21:25:50;;;;;;;21.20;10.80;;;;;;;8.18;69.98;98944.08;106419;1254;60545;-86
2023/11/25 21:28:24;;;;;;;19.50;10.90;;;;;;;8.19;69.82;98930.52;106338;1253;60563;-86
2023/11/25 21:30:58;;;;;;;19.40;10.40;;;;;;;8.22;69.49;98921.70;106502;1253;74425;-86
2023/11/25 21:33:26;;;;;;;21.60;10.50;;;;;;;8.21;69.47;98917.95;106396;1253;66621;-87
2023/11/25 21:36:01;;;;;;;19.80;9.40;;;;;;;8.22;69.41;98918.27;106402;1253;72803;-87
2023/11/25 21:38:36;;;;;;;17.60;10.30;;;;;;;8.20;69.58;98920.31;106273;1255;60532;-87
2023/11/25 21:41:13;;;;;;;20.20;10.70;;;;;;;8.22;69.58;98918.86;106640;1253;60441;-87
2023/11/25 21:43:53;;;;;;;27.00;10.60;;;;;;;8.15;70.08;98911.54;106359;1253;73948;-86
2023/11/25 21:46:25;;;;;;;26.10;12.60;;;;;;;8.09;70.39;98906.98;106484;1257;68367;-85
2023/11/25 21:48:58;;;;;;;24.10;11.10;;;;;;;8.09;70.47;98920.13;106240;1253;73146;-85
2023/11/25 21:51:33;;;;;;;26.70;11.70;;;;;;;8.16;70.24;98924.80;106469;1257;60406;-87
2023/11/25 21:54:01;;;;;;;23.90;11.10;;;;;;;8.23;69.91;98929.25;106527;1253;60358;-87
2023/11/25 21:56:35;;;;;;;27.30;13.30;;;;;;;8.29;69.58;98932.17;106477;1254;73896;-87
2023/11/25 21:59:03;;;;;;;22.30;11.30;;;;;;;8.37;69.26;98930.98;106354;1258;67102;-86
2023/11/25 22:01:34;;;;;;;22.00;10.00;;;;;;;8.36;69.36;98922.46;106449;1253;71462;-85
2023/11/25 22:04:08;;;;;;;22.50;11.30;;;;;;;8.46;68.86;98913.42;106561;1257;60596;-87
2023/11/25 22:06:43;;;;;;;21.70;10.30;;;;;;;8.51;68.61;98908.48;106477;1256;59355;-86
2023/11/25 22:09:14;;;;;;;20.30;10.60;;;;;;;8.49;68.82;98917.28;106545;1253;72599;-85
2023/11/25 22:11:48;;;;;;;19.80;11.20;;;;;;;8.47;68.91;98918.42;106461;1258;68366;-85
2023/11/25 22:14:25;;;;;;;22.70;11.40;;;;;;;8.52;68.78;98912.92;106631;1257;72711;-87
2023/11/25 22:16:59;;;;;;;21.60;10.70;;;;;;;8.51;68.78;98912.73;106754;1257;60337;-86
2023/11/25 22:19:28;;;;;;;18.50;9.30;;;;;;;8.51;68.92;98907.98;106699;1257;60514;-87
2023/11/25 22:22:08;;;;;;;13.20;7.10;;;;;;;8.48;69.25;98904.63;106678;1253;72483;-88
2023/11/25 22:25:03;;;;;;;22.10;10.20;;;;;;;8.47;69.46;98905.30;106748;1254;68977;-87
2023/11/25 22:27:41;;;;;;;23.50;10.80;;;;;;;8.47;69.51;98899.95;106558;1254;71483;-87
2023/11/25 22:30:11;;;;;;;22.80;11.70;;;;;;;8.52;69.27;98890.55;106643;1259;60566;-87
2023/11/25 22:32:46;;;;;;;26.30;11.90;;;;;;;8.61;68.83;98887.26;106513;1257;60345;-86
2023/11/25 22:35:27;;;;;;;24.50;12.20;;;;;;;8.62;68.48;98888.55;106689;1258;73852;-85
2023/11/25 22:38:06;;;;;;;24.60;10.50;;;;;;;8.60;68.40;98884.83;106509;1253;68419;-86
2023/11/25 22:40:40;;;;;;;24.60;11.70;;;;;;;8.60;68.28;98875.61;106572;1254;71378;-87
2023/11/25 22:43:20;;;;;;;20.10;9.60;;;;;;;8.59;68.13;98866.49;106515;1258;60431;-87
2023/11/25 22:46:00;;;;;;;17.00;8.90;;;;;;;8.60;67.93;98857.92;106895;1257;60424;-87
2023/11/25 22:48:37;;;;;;;17.20;8.90;;;;;;;8.55;68.26;98848.27;106329;1253;73865;-87
2023/11/25 22:51:11;;;;;;;16.60;8.60;;;;;;;8.49;68.32;98842.80;106549;1254;67244;-86
2023/11/25 22:53:53;;;;;;;18.90;9.60;;;;;;;8.56;67.95;98847.77;106584;1254;72460;-85
2023/11/25 22:56:34;;;;;;;17.20;9.10;;;;;;;8.51;68.13;98839.17;106422;1259;60850;-85
2023/11/25 22:59:08;;;;;;;22.00;9.70;;;;;;;8.50;68.09;98835.61;106936;1253;60502;-85
2023/11/25 23:01:41;;;;;;;20.80;9.60;;;;;;;8.52;67.85;98845.18;109169;1255;72065;-86
2023/11/25 23:04:22;;;;;;;17.10;8.40;;;;;;;8.52;67.71;98843.28;106359;1258;68356;-85
2023/11/25 23:07:03;;;;;;;15.70;8.80;;;;;;;8.52;67.74;98841.70;106449;1274;71625;-88
2023/11/25 23:09:37;;;;;;;15.50;8.50;;;;;;;8.56;67.49;98838.58;106404;1253;60889;-86
2023/11/25 23:12:07;;;;;;;20.70;9.10;;;;;;;8.68;66.79;98842.79;106343;1253;60566;-86
2023/11/25 23:14:41;;;;;;;16.50;9.20;;;;;;;8.59;66.93;98850.88;106328;1254;72599;-86
2023/11/25 23:17:16;;;;;;;21.30;9.80;;;;;;;8.60;67.12;98858.47;106388;1254;68362;-87
2023/11/25 23:19:50;;;;;;;23.70;10.60;;;;;;;8.49;67.99;98864.75;106653;1256;71874;-86
2023/11/25 23:22:17;;;;;;;23.60;11.80;;;;;;;8.53;68.03;98863.85;106308;1253;60464;-87
2023/11/25 23:24:51;;;;;;;21.60;10.70;;;;;;;8.58;67.92;98855.08;106269;1258;60288;-87
2023/11/25 23:27:25;;;;;;;18.70;9.50;;;;;;;8.52;68.33;98844.81;106428;1258;73831;-87
2023/11/25 23:29:52;;;;;;;21.40;9.70;;;;;;;8.55;68.41;98841.25;106226;1254;68930;-87
2023/11/25 23:32:26;;;;;;;19.40;9.50;;;;;;;8.56;68.46;98838.19;106380;1256;72513;-86
2023/11/25 23:35:01;;;;;;;22.60;10.20;;;;;;;8.49;68.84;98835.66;106395;1253;60929;-85
2023/11/25 23:37:35;;;;;;;16.30;8.50;;;;;;;8.53;68.85;98832.11;106566;1253;60397;-85
2023/11/25 23:40:11;;;;;;;17.40;8.90;;;;;;;8.57;68.48;98827.05;106148;1258;72596;-85
2023/11/25 23:42:46;;;;;;;16.90;8.90;;;;;;;8.59;68.31;98835.63;106528;1254;67612;-85
2023/11/25 23:45:22;;;;;;;17.20;9.00;;;;;;;8.65;68.10;98835.44;106370;1255;71689;-86
2023/11/25 23:47:56;;;;;;;17.00;8.90;;;;;;;8.71;67.91;98838.45;106422;1253;59161;-86
2023/11/25 23:50:23;;;;;;;15.00;8.10;;;;;;;8.66;68.15;98840.98;106549;1253;60268;-86
2023/11/25 23:52:57;;;;;;;18.80;8.60;;;;;;;8.70;67.97;98839.15;106399;1253;73883;-87
2023/11/25 23:55:31;;;;;;;17.30;9.00;;;;;;;8.73;67.84;98838.69;106347;1258;68306;-87
2023/11/25 23:58:05;;;;;;;15.90;8.70;;;;;;;8.77;67.67;98845.64;106305;1253;72647;-87
